Terminal Aerodrome Forecast
Issued by NWS Topeka, KS

Home | Current Version | Previous Version | Text Only | Print | Product List | Glossary Off
Versions: 1 2 3 4 5 6 7 8 9 10 11 12 13 14 15 16 17 18 19 20 21 22 23 24 25 26

647
FTUS43 KTOP 261132
TAFTOP
TAF
KTOP 261132Z 2612/2712 14005KT P6SM SCT020 BKN040
     FM261700 16010G19KT P6SM BKN050
     FM262100 16011G19KT P6SM TSRA BKN025CB
     FM270100 15012KT P6SM VCTS SCT025 BKN040CB=

USA.gov is the U.S. government's official web portal to all federal, state and local government web resources and services.